sensor_id;sensor_type;location;lat;lon;timestamp;temperature;humidity
13606;DHT22;6874;52.084;5.090;2022-09-21T00:00:45;12.50;94.40
13606;DHT22;6874;52.084;5.090;2022-09-21T00:03:10;12.50;94.40
13606;DHT22;6874;52.084;5.090;2022-09-21T00:05:36;12.40;94.40
13606;DHT22;6874;52.084;5.090;2022-09-21T00:08:04;12.40;94.40
13606;DHT22;6874;52.084;5.090;2022-09-21T00:10:30;12.40;94.40
13606;DHT22;6874;52.084;5.090;2022-09-21T00:12:57;12.30;94.30
13606;DHT22;6874;52.084;5.090;2022-09-21T00:15:23;12.30;94.30
13606;DHT22;6874;52.084;5.090;2022-09-21T00:17:52;12.30;94.40
13606;DHT22;6874;52.084;5.090;2022-09-21T00:20:18;12.30;94.30
13606;DHT22;6874;52.084;5.090;2022-09-21T00:22:45;12.30;94.30
13606;DHT22;6874;52.084;5.090;2022-09-21T00:25:11;12.20;94.30
13606;DHT22;6874;52.084;5.090;2022-09-21T00:27:36;12.20;94.30
13606;DHT22;6874;52.084;5.090;2022-09-21T00:30:03;12.20;94.30
13606;DHT22;6874;52.084;5.090;2022-09-21T00:32:32;12.10;94.10
13606;DHT22;6874;52.084;5.090;2022-09-21T00:34:58;12.10;94.30
13606;DHT22;6874;52.084;5.090;2022-09-21T00:37:25;12.10;94.20
13606;DHT22;6874;52.084;5.090;2022-09-21T00:39:52;12.00;94.20
13606;DHT22;6874;52.084;5.090;2022-09-21T00:42:29;12.00;94.20
13606;DHT22;6874;52.084;5.090;2022-09-21T00:44:55;12.00;94.20
13606;DHT22;6874;52.084;5.090;2022-09-21T00:47:38;12.00;94.20
13606;DHT22;6874;52.084;5.090;2022-09-21T00:50:07;12.00;94.30
13606;DHT22;6874;52.084;5.090;2022-09-21T00:52:41;12.00;94.30
13606;DHT22;6874;52.084;5.090;2022-09-21T00:55:24;12.00;94.20
13606;DHT22;6874;52.084;5.090;2022-09-21T00:57:56;11.90;94.20
13606;DHT22;6874;52.084;5.090;2022-09-21T01:00:23;11.90;94.10
13606;DHT22;6874;52.084;5.090;2022-09-21T01:02:49;11.90;94.10
13606;DHT22;6874;52.084;5.090;2022-09-21T01:05:15;11.90;94.20
13606;DHT22;6874;52.084;5.090;2022-09-21T01:07:45;11.80;94.40
13606;DHT22;6874;52.084;5.090;2022-09-21T01:10:13;11.80;94.40
13606;DHT22;6874;52.084;5.090;2022-09-21T01:13:16;11.80;94.20
13606;DHT22;6874;52.084;5.090;2022-09-21T01:16:02;11.80;94.10
13606;DHT22;6874;52.084;5.090;2022-09-21T01:18:56;11.70;94.10
13606;DHT22;6874;52.084;5.090;2022-09-21T01:21:28;11.70;94.10
13606;DHT22;6874;52.084;5.090;2022-09-21T01:27:01;11.70;94.20
13606;DHT22;6874;52.084;5.090;2022-09-21T01:29:39;11.70;94.20
13606;DHT22;6874;52.084;5.090;2022-09-21T01:32:25;11.60;94.10
13606;DHT22;6874;52.084;5.090;2022-09-21T01:35:08;11.70;94.20
13606;DHT22;6874;52.084;5.090;2022-09-21T01:37:56;11.60;94.10
13606;DHT22;6874;52.084;5.090;2022-09-21T01:40:27;11.60;94.10
13606;DHT22;6874;52.084;5.090;2022-09-21T01:42:54;11.60;94.00
13606;DHT22;6874;52.084;5.090;2022-09-21T01:45:31;11.60;94.10
13606;DHT22;6874;52.084;5.090;2022-09-21T01:47:59;11.50;94.00
13606;DHT22;6874;52.084;5.090;2022-09-21T01:50:30;11.50;94.00
13606;DHT22;6874;52.084;5.090;2022-09-21T01:53:06;11.50;94.00
13606;DHT22;6874;52.084;5.090;2022-09-21T01:55:42;11.50;94.00
13606;DHT22;6874;52.084;5.090;2022-09-21T02:00:55;11.40;94.10
13606;DHT22;6874;52.084;5.090;2022-09-21T02:03:35;11.40;94.00
13606;DHT22;6874;52.084;5.090;2022-09-21T02:06:02;11.40;94.00
13606;DHT22;6874;52.084;5.090;2022-09-21T02:08:30;11.40;93.90
13606;DHT22;6874;52.084;5.090;2022-09-21T02:10:59;11.40;94.00
13606;DHT22;6874;52.084;5.090;2022-09-21T02:13:26;11.30;94.10
13606;DHT22;6874;52.084;5.090;2022-09-21T02:16:15;11.30;94.00
13606;DHT22;6874;52.084;5.090;2022-09-21T02:29:44;11.20;94.00
13606;DHT22;6874;52.084;5.090;2022-09-21T02:35:48;11.10;93.90
13606;DHT22;6874;52.084;5.090;2022-09-21T02:38:40;11.10;93.90
13606;DHT22;6874;52.084;5.090;2022-09-21T02:43:56;11.10;93.90
13606;DHT22;6874;52.084;5.090;2022-09-21T02:46:27;11.10;93.90
13606;DHT22;6874;52.084;5.090;2022-09-21T02:48:58;11.00;93.90
13606;DHT22;6874;52.084;5.090;2022-09-21T02:51:29;11.00;93.90
13606;DHT22;6874;52.084;5.090;2022-09-21T02:53:57;11.00;93.90
13606;DHT22;6874;52.084;5.090;2022-09-21T02:56:24;11.00;94.00
13606;DHT22;6874;52.084;5.090;2022-09-21T02:58:53;10.90;93.80
13606;DHT22;6874;52.084;5.090;2022-09-21T03:01:21;10.90;93.80
13606;DHT22;6874;52.084;5.090;2022-09-21T03:03:47;10.90;93.90
13606;DHT22;6874;52.084;5.090;2022-09-21T03:06:13;10.80;93.90
13606;DHT22;6874;52.084;5.090;2022-09-21T03:08:38;10.90;93.90
13606;DHT22;6874;52.084;5.090;2022-09-21T03:11:04;10.80;93.90
13606;DHT22;6874;52.084;5.090;2022-09-21T03:13:30;10.80;93.90
13606;DHT22;6874;52.084;5.090;2022-09-21T03:16:00;10.80;93.90
13606;DHT22;6874;52.084;5.090;2022-09-21T03:18:27;10.80;93.90
13606;DHT22;6874;52.084;5.090;2022-09-21T03:20:52;10.70;93.80
13606;DHT22;6874;52.084;5.090;2022-09-21T03:23:18;10.70;93.80
13606;DHT22;6874;52.084;5.090;2022-09-21T03:25:44;10.70;93.80
13606;DHT22;6874;52.084;5.090;2022-09-21T03:28:14;10.70;93.80
13606;DHT22;6874;52.084;5.090;2022-09-21T03:30:40;10.70;93.90
13606;DHT22;6874;52.084;5.090;2022-09-21T03:33:06;10.60;93.80
13606;DHT22;6874;52.084;5.090;2022-09-21T03:35:32;10.60;93.80
13606;DHT22;6874;52.084;5.090;2022-09-21T03:37:59;10.60;93.80
13606;DHT22;6874;52.084;5.090;2022-09-21T03:40:25;10.60;93.80
13606;DHT22;6874;52.084;5.090;2022-09-21T03:42:52;10.60;93.80
13606;DHT22;6874;52.084;5.090;2022-09-21T03:45:19;10.50;93.80
13606;DHT22;6874;52.084;5.090;2022-09-21T03:47:46;10.60;93.80
13606;DHT22;6874;52.084;5.090;2022-09-21T03:50:12;10.50;93.80
13606;DHT22;6874;52.084;5.090;2022-09-21T03:52:37;10.40;93.80
13606;DHT22;6874;52.084;5.090;2022-09-21T03:55:04;10.50;93.80
13606;DHT22;6874;52.084;5.090;2022-09-21T03:57:31;10.40;93.80
13606;DHT22;6874;52.084;5.090;2022-09-21T03:59:57;10.50;93.80
13606;DHT22;6874;52.084;5.090;2022-09-21T04:02:22;10.50;93.80
13606;DHT22;6874;52.084;5.090;2022-09-21T04:04:48;10.30;93.70
13606;DHT22;6874;52.084;5.090;2022-09-21T04:07:14;10.40;93.80
13606;DHT22;6874;52.084;5.090;2022-09-21T04:09:40;10.40;93.80
13606;DHT22;6874;52.084;5.090;2022-09-21T04:12:06;10.30;93.70
13606;DHT22;6874;52.084;5.090;2022-09-21T04:14:31;10.30;93.70
13606;DHT22;6874;52.084;5.090;2022-09-21T04:16:58;10.30;93.70
13606;DHT22;6874;52.084;5.090;2022-09-21T04:19:24;10.20;93.70
13606;DHT22;6874;52.084;5.090;2022-09-21T04:21:49;10.30;93.70
13606;DHT22;6874;52.084;5.090;2022-09-21T04:24:20;10.30;93.70
13606;DHT22;6874;52.084;5.090;2022-09-21T04:26:46;10.30;93.70
13606;DHT22;6874;52.084;5.090;2022-09-21T04:29:13;10.20;93.70
13606;DHT22;6874;52.084;5.090;2022-09-21T04:31:39;10.20;93.70
13606;DHT22;6874;52.084;5.090;2022-09-21T04:34:05;10.30;93.70
13606;DHT22;6874;52.084;5.090;2022-09-21T04:36:30;10.20;93.80
13606;DHT22;6874;52.084;5.090;2022-09-21T04:39:00;10.20;93.80
13606;DHT22;6874;52.084;5.090;2022-09-21T04:41:25;10.20;93.70
13606;DHT22;6874;52.084;5.090;2022-09-21T04:43:51;10.10;93.70
13606;DHT22;6874;52.084;5.090;2022-09-21T04:46:18;10.10;93.70
13606;DHT22;6874;52.084;5.090;2022-09-21T04:48:45;10.10;93.70
13606;DHT22;6874;52.084;5.090;2022-09-21T04:51:12;10.10;93.70
13606;DHT22;6874;52.084;5.090;2022-09-21T04:53:39;10.10;93.80
13606;DHT22;6874;52.084;5.090;2022-09-21T04:56:06;10.10;93.70
13606;DHT22;6874;52.084;5.090;2022-09-21T04:58:32;10.00;93.70
13606;DHT22;6874;52.084;5.090;2022-09-21T05:00:58;10.00;93.70
13606;DHT22;6874;52.084;5.090;2022-09-21T05:03:24;10.00;93.70
13606;DHT22;6874;52.084;5.090;2022-09-21T05:05:52;9.90;94.10
13606;DHT22;6874;52.084;5.090;2022-09-21T05:08:19;9.90;94.20
13606;DHT22;6874;52.084;5.090;2022-09-21T05:11:10;9.90;94.60
13606;DHT22;6874;52.084;5.090;2022-09-21T05:13:37;10.00;93.70
13606;DHT22;6874;52.084;5.090;2022-09-21T05:16:03;9.90;94.30
13606;DHT22;6874;52.084;5.090;2022-09-21T05:18:29;9.90;94.30
13606;DHT22;6874;52.084;5.090;2022-09-21T05:20:56;9.90;94.30
13606;DHT22;6874;52.084;5.090;2022-09-21T05:23:22;9.90;94.30
13606;DHT22;6874;52.084;5.090;2022-09-21T05:25:49;9.90;94.30
13606;DHT22;6874;52.084;5.090;2022-09-21T05:28:16;9.80;94.30
13606;DHT22;6874;52.084;5.090;2022-09-21T05:30:44;9.80;94.30
13606;DHT22;6874;52.084;5.090;2022-09-21T05:33:14;9.70;94.20
13606;DHT22;6874;52.084;5.090;2022-09-21T05:38:27;9.80;94.70
13606;DHT22;6874;52.084;5.090;2022-09-21T05:40:53;9.80;94.30
13606;DHT22;6874;52.084;5.090;2022-09-21T05:43:19;9.80;94.30
13606;DHT22;6874;52.084;5.090;2022-09-21T05:45:47;9.80;94.30
13606;DHT22;6874;52.084;5.090;2022-09-21T05:48:17;9.70;94.30
13606;DHT22;6874;52.084;5.090;2022-09-21T05:51:03;9.70;94.20
13606;DHT22;6874;52.084;5.090;2022-09-21T05:53:59;9.70;94.20
13606;DHT22;6874;52.084;5.090;2022-09-21T05:59:49;9.70;94.30
13606;DHT22;6874;52.084;5.090;2022-09-21T06:02:43;9.60;94.30
13606;DHT22;6874;52.084;5.090;2022-09-21T06:05:14;9.60;94.30
13606;DHT22;6874;52.084;5.090;2022-09-21T06:07:40;9.60;94.30
13606;DHT22;6874;52.084;5.090;2022-09-21T06:10:07;9.60;94.60
13606;DHT22;6874;52.084;5.090;2022-09-21T06:12:33;9.60;94.30
13606;DHT22;6874;52.084;5.090;2022-09-21T06:14:59;9.60;94.30
13606;DHT22;6874;52.084;5.090;2022-09-21T06:17:24;9.50;94.20
13606;DHT22;6874;52.084;5.090;2022-09-21T06:19:52;9.60;94.30
13606;DHT22;6874;52.084;5.090;2022-09-21T06:22:18;9.50;94.20
13606;DHT22;6874;52.084;5.090;2022-09-21T06:24:44;9.60;94.30
13606;DHT22;6874;52.084;5.090;2022-09-21T06:27:10;9.50;94.30
13606;DHT22;6874;52.084;5.090;2022-09-21T06:29:35;9.50;94.20
13606;DHT22;6874;52.084;5.090;2022-09-21T06:32:02;9.50;94.30
13606;DHT22;6874;52.084;5.090;2022-09-21T06:34:28;9.50;94.30
13606;DHT22;6874;52.084;5.090;2022-09-21T06:36:54;9.50;94.20
13606;DHT22;6874;52.084;5.090;2022-09-21T06:39:19;9.50;94.30
13606;DHT22;6874;52.084;5.090;2022-09-21T06:41:45;9.50;94.30
13606;DHT22;6874;52.084;5.090;2022-09-21T06:44:10;9.50;94.30
13606;DHT22;6874;52.084;5.090;2022-09-21T06:46:36;9.40;94.30
13606;DHT22;6874;52.084;5.090;2022-09-21T06:49:02;9.50;94.30
13606;DHT22;6874;52.084;5.090;2022-09-21T06:51:27;9.50;94.30
13606;DHT22;6874;52.084;5.090;2022-09-21T06:53:54;9.50;94.30
13606;DHT22;6874;52.084;5.090;2022-09-21T06:56:21;9.50;94.40
13606;DHT22;6874;52.084;5.090;2022-09-21T06:58:47;9.50;94.30
13606;DHT22;6874;52.084;5.090;2022-09-21T07:01:13;9.50;94.40
13606;DHT22;6874;52.084;5.090;2022-09-21T07:03:40;9.50;94.40
13606;DHT22;6874;52.084;5.090;2022-09-21T07:06:08;9.50;94.40
13606;DHT22;6874;52.084;5.090;2022-09-21T07:08:35;9.50;94.40
13606;DHT22;6874;52.084;5.090;2022-09-21T07:11:01;9.50;94.40
13606;DHT22;6874;52.084;5.090;2022-09-21T07:13:30;9.50;94.40
13606;DHT22;6874;52.084;5.090;2022-09-21T07:15:55;9.50;94.40
13606;DHT22;6874;52.084;5.090;2022-09-21T07:18:21;9.50;94.40
13606;DHT22;6874;52.084;5.090;2022-09-21T07:20:47;9.50;94.40
13606;DHT22;6874;52.084;5.090;2022-09-21T07:23:15;9.60;94.50
13606;DHT22;6874;52.084;5.090;2022-09-21T07:25:46;9.60;94.50
13606;DHT22;6874;52.084;5.090;2022-09-21T07:28:17;9.60;94.50
13606;DHT22;6874;52.084;5.090;2022-09-21T07:30:43;9.60;94.60
13606;DHT22;6874;52.084;5.090;2022-09-21T07:33:09;9.60;94.50
13606;DHT22;6874;52.084;5.090;2022-09-21T07:35:34;9.60;94.50
13606;DHT22;6874;52.084;5.090;2022-09-21T07:38:01;9.60;94.50
13606;DHT22;6874;52.084;5.090;2022-09-21T07:40:28;9.60;94.60
13606;DHT22;6874;52.084;5.090;2022-09-21T07:42:57;9.70;94.60
13606;DHT22;6874;52.084;5.090;2022-09-21T07:45:24;9.60;94.50
13606;DHT22;6874;52.084;5.090;2022-09-21T07:47:50;9.70;94.70
13606;DHT22;6874;52.084;5.090;2022-09-21T07:50:19;9.70;94.60
13606;DHT22;6874;52.084;5.090;2022-09-21T07:52:44;9.90;94.80
13606;DHT22;6874;52.084;5.090;2022-09-21T07:55:10;9.70;94.60
13606;DHT22;6874;52.084;5.090;2022-09-21T07:57:35;9.70;94.70
13606;DHT22;6874;52.084;5.090;2022-09-21T08:00:20;9.60;94.70
13606;DHT22;6874;52.084;5.090;2022-09-21T08:02:45;9.70;95.10
13606;DHT22;6874;52.084;5.090;2022-09-21T08:05:11;9.80;94.70
13606;DHT22;6874;52.084;5.090;2022-09-21T08:07:36;9.80;94.90
13606;DHT22;6874;52.084;5.090;2022-09-21T08:10:02;9.80;95.00
13606;DHT22;6874;52.084;5.090;2022-09-21T08:12:28;9.80;94.90
13606;DHT22;6874;52.084;5.090;2022-09-21T08:14:54;9.80;95.00
13606;DHT22;6874;52.084;5.090;2022-09-21T08:17:19;9.80;95.00
13606;DHT22;6874;52.084;5.090;2022-09-21T08:19:45;9.90;95.10
13606;DHT22;6874;52.084;5.090;2022-09-21T08:22:11;9.90;95.10
13606;DHT22;6874;52.084;5.090;2022-09-21T08:24:38;9.90;95.20
13606;DHT22;6874;52.084;5.090;2022-09-21T08:27:06;9.90;95.10
13606;DHT22;6874;52.084;5.090;2022-09-21T08:29:32;9.90;95.10
13606;DHT22;6874;52.084;5.090;2022-09-21T08:31:58;10.00;94.70
13606;DHT22;6874;52.084;5.090;2022-09-21T08:34:23;10.00;94.70
13606;DHT22;6874;52.084;5.090;2022-09-21T08:36:50;10.00;94.90
13606;DHT22;6874;52.084;5.090;2022-09-21T08:39:16;10.10;94.80
13606;DHT22;6874;52.084;5.090;2022-09-21T08:42:30;10.10;94.90
13606;DHT22;6874;52.084;5.090;2022-09-21T08:44:52;10.10;95.00
13606;DHT22;6874;52.084;5.090;2022-09-21T08:47:52;10.10;95.00
13606;DHT22;6874;52.084;5.090;2022-09-21T08:53:01;10.20;95.10
13606;DHT22;6874;52.084;5.090;2022-09-21T08:55:28;10.20;95.20
13606;DHT22;6874;52.084;5.090;2022-09-21T08:57:54;10.30;95.40
13606;DHT22;6874;52.084;5.090;2022-09-21T09:00:19;10.30;95.30
13606;DHT22;6874;52.084;5.090;2022-09-21T09:02:58;10.30;95.20
13606;DHT22;6874;52.084;5.090;2022-09-21T09:05:46;10.30;95.30
13606;DHT22;6874;52.084;5.090;2022-09-21T09:11:12;10.40;95.40
13606;DHT22;6874;52.084;5.090;2022-09-21T09:16:25;10.50;95.40
13606;DHT22;6874;52.084;5.090;2022-09-21T09:19:09;10.50;95.50
13606;DHT22;6874;52.084;5.090;2022-09-21T09:21:40;10.50;95.30
13606;DHT22;6874;52.084;5.090;2022-09-21T09:29:40;10.60;95.50
13606;DHT22;6874;52.084;5.090;2022-09-21T09:32:13;10.60;95.50
13606;DHT22;6874;52.084;5.090;2022-09-21T09:34:51;10.60;95.50
13606;DHT22;6874;52.084;5.090;2022-09-21T09:37:23;10.70;95.50
13606;DHT22;6874;52.084;5.090;2022-09-21T09:39:54;10.70;95.50
13606;DHT22;6874;52.084;5.090;2022-09-21T09:45:15;10.80;95.60
13606;DHT22;6874;52.084;5.090;2022-09-21T09:50:37;10.90;95.80
13606;DHT22;6874;52.084;5.090;2022-09-21T09:55:44;11.00;96.20
13606;DHT22;6874;52.084;5.090;2022-09-21T09:58:32;11.00;96.10
13606;DHT22;6874;52.084;5.090;2022-09-21T10:01:00;11.10;96.20
13606;DHT22;6874;52.084;5.090;2022-09-21T10:03:26;11.10;96.20
13606;DHT22;6874;52.084;5.090;2022-09-21T10:05:52;11.20;96.20
13606;DHT22;6874;52.084;5.090;2022-09-21T10:11:03;11.30;96.30
13606;DHT22;6874;52.084;5.090;2022-09-21T10:13:30;11.30;96.30
13606;DHT22;6874;52.084;5.090;2022-09-21T10:16:05;11.30;96.30
13606;DHT22;6874;52.084;5.090;2022-09-21T10:21:24;11.40;96.40
13606;DHT22;6874;52.084;5.090;2022-09-21T10:23:55;11.50;96.60
13606;DHT22;6874;52.084;5.090;2022-09-21T10:26:22;11.60;96.80
13606;DHT22;6874;52.084;5.090;2022-09-21T10:28:58;11.60;97.00
13606;DHT22;6874;52.084;5.090;2022-09-21T10:31:26;11.70;97.30
13606;DHT22;6874;52.084;5.090;2022-09-21T10:34:05;11.80;97.40
13606;DHT22;6874;52.084;5.090;2022-09-21T10:36:34;11.80;97.70
13606;DHT22;6874;52.084;5.090;2022-09-21T10:39:30;12.00;98.20
13606;DHT22;6874;52.084;5.090;2022-09-21T10:42:25;12.10;98.90
13606;DHT22;6874;52.084;5.090;2022-09-21T10:45:13;12.20;99.10
13606;DHT22;6874;52.084;5.090;2022-09-21T10:47:55;12.30;99.50
13606;DHT22;6874;52.084;5.090;2022-09-21T10:50:28;12.50;99.60
13606;DHT22;6874;52.084;5.090;2022-09-21T10:55:29;12.80;99.90
13606;DHT22;6874;52.084;5.090;2022-09-21T10:57:58;12.90;99.90
13606;DHT22;6874;52.084;5.090;2022-09-21T11:00:29;13.10;99.90
13606;DHT22;6874;52.084;5.090;2022-09-21T11:03:05;13.40;99.90
13606;DHT22;6874;52.084;5.090;2022-09-21T11:05:48;13.50;99.90
13606;DHT22;6874;52.084;5.090;2022-09-21T11:08:35;13.70;99.90
13606;DHT22;6874;52.084;5.090;2022-09-21T11:18:53;14.40;99.50
13606;DHT22;6874;52.084;5.090;2022-09-21T11:21:29;14.50;99.40
13606;DHT22;6874;52.084;5.090;2022-09-21T11:24:34;14.60;99.10
13606;DHT22;6874;52.084;5.090;2022-09-21T11:27:36;14.70;98.70
13606;DHT22;6874;52.084;5.090;2022-09-21T11:30:12;14.90;98.80
13606;DHT22;6874;52.084;5.090;2022-09-21T11:46:51;15.50;97.90
13606;DHT22;6874;52.084;5.090;2022-09-21T11:52:25;15.50;97.20
13606;DHT22;6874;52.084;5.090;2022-09-21T11:57:58;15.50;96.90
13606;DHT22;6874;52.084;5.090;2022-09-21T12:00:30;15.40;96.70
13606;DHT22;6874;52.084;5.090;2022-09-21T12:03:11;15.50;96.60
13606;DHT22;6874;52.084;5.090;2022-09-21T12:11:31;15.40;96.10
13606;DHT22;6874;52.084;5.090;2022-09-21T12:17:30;15.40;95.90
13606;DHT22;6874;52.084;5.090;2022-09-21T12:22:37;15.40;95.80
13606;DHT22;6874;52.084;5.090;2022-09-21T12:25:13;15.30;95.80
13606;DHT22;6874;52.084;5.090;2022-09-21T12:27:50;15.30;96.00
13606;DHT22;6874;52.084;5.090;2022-09-21T12:30:22;15.30;96.30
13606;DHT22;6874;52.084;5.090;2022-09-21T12:32:49;15.30;96.40
13606;DHT22;6874;52.084;5.090;2022-09-21T12:38:14;15.40;96.40
13606;DHT22;6874;52.084;5.090;2022-09-21T12:40:46;15.30;96.40
13606;DHT22;6874;52.084;5.090;2022-09-21T12:43:27;15.30;96.40
13606;DHT22;6874;52.084;5.090;2022-09-21T12:46:24;15.30;96.50
13606;DHT22;6874;52.084;5.090;2022-09-21T12:48:53;15.30;96.60
13606;DHT22;6874;52.084;5.090;2022-09-21T12:53:56;15.40;96.60
13606;DHT22;6874;52.084;5.090;2022-09-21T12:56:37;15.40;96.70
13606;DHT22;6874;52.084;5.090;2022-09-21T13:04:38;15.50;97.00
13606;DHT22;6874;52.084;5.090;2022-09-21T13:10:11;15.60;97.10
13606;DHT22;6874;52.084;5.090;2022-09-21T13:12:41;15.60;97.10
13606;DHT22;6874;52.084;5.090;2022-09-21T13:15:22;15.70;96.80
13606;DHT22;6874;52.084;5.090;2022-09-21T13:18:14;15.70;97.00
13606;DHT22;6874;52.084;5.090;2022-09-21T13:20:42;15.70;96.50
13606;DHT22;6874;52.084;5.090;2022-09-21T13:23:26;15.70;96.30
13606;DHT22;6874;52.084;5.090;2022-09-21T13:26:06;15.80;96.30
13606;DHT22;6874;52.084;5.090;2022-09-21T13:31:41;15.80;96.40
13606;DHT22;6874;52.084;5.090;2022-09-21T13:34:26;15.80;96.10
13606;DHT22;6874;52.084;5.090;2022-09-21T13:47:41;15.80;96.00
13606;DHT22;6874;52.084;5.090;2022-09-21T13:52:53;15.80;96.10
13606;DHT22;6874;52.084;5.090;2022-09-21T13:55:38;15.80;95.70
13606;DHT22;6874;52.084;5.090;2022-09-21T13:58:21;15.80;95.70
13606;DHT22;6874;52.084;5.090;2022-09-21T14:03:27;15.80;95.60
13606;DHT22;6874;52.084;5.090;2022-09-21T14:06:09;15.80;95.80
13606;DHT22;6874;52.084;5.090;2022-09-21T14:08:47;15.80;95.90
13606;DHT22;6874;52.084;5.090;2022-09-21T14:11:21;15.80;95.90
13606;DHT22;6874;52.084;5.090;2022-09-21T14:14:02;15.80;95.80
13606;DHT22;6874;52.084;5.090;2022-09-21T14:18:59;15.80;95.90
13606;DHT22;6874;52.084;5.090;2022-09-21T14:21:26;15.80;95.90
13606;DHT22;6874;52.084;5.090;2022-09-21T14:24:19;15.80;95.90
13606;DHT22;6874;52.084;5.090;2022-09-21T14:26:51;15.80;96.00
13606;DHT22;6874;52.084;5.090;2022-09-21T14:29:44;15.80;96.00
13606;DHT22;6874;52.084;5.090;2022-09-21T14:32:21;15.80;95.90
13606;DHT22;6874;52.084;5.090;2022-09-21T14:34:50;15.80;95.90
13606;DHT22;6874;52.084;5.090;2022-09-21T14:37:33;15.80;95.90
13606;DHT22;6874;52.084;5.090;2022-09-21T14:40:03;15.80;96.00
13606;DHT22;6874;52.084;5.090;2022-09-21T14:42:31;15.70;96.10
13606;DHT22;6874;52.084;5.090;2022-09-21T14:45:01;15.80;96.20
13606;DHT22;6874;52.084;5.090;2022-09-21T14:47:53;15.70;96.10
13606;DHT22;6874;52.084;5.090;2022-09-21T14:56:00;15.90;95.80
13606;DHT22;6874;52.084;5.090;2022-09-21T15:01:38;16.00;96.40
13606;DHT22;6874;52.084;5.090;2022-09-21T15:07:27;16.00;96.30
13606;DHT22;6874;52.084;5.090;2022-09-21T15:10:28;16.00;95.90
13606;DHT22;6874;52.084;5.090;2022-09-21T15:16:08;16.10;96.30
13606;DHT22;6874;52.084;5.090;2022-09-21T15:18:43;16.10;96.30
13606;DHT22;6874;52.084;5.090;2022-09-21T15:21:23;16.10;96.40
13606;DHT22;6874;52.084;5.090;2022-09-21T15:23:51;16.10;96.40
13606;DHT22;6874;52.084;5.090;2022-09-21T15:26:22;16.00;96.40
13606;DHT22;6874;52.084;5.090;2022-09-21T15:28:57;16.00;96.40
13606;DHT22;6874;52.084;5.090;2022-09-21T15:31:24;16.00;96.40
13606;DHT22;6874;52.084;5.090;2022-09-21T15:33:51;16.00;96.40
13606;DHT22;6874;52.084;5.090;2022-09-21T15:36:25;16.10;96.50
13606;DHT22;6874;52.084;5.090;2022-09-21T15:38:52;16.00;96.50
13606;DHT22;6874;52.084;5.090;2022-09-21T15:44:23;16.00;96.50
13606;DHT22;6874;52.084;5.090;2022-09-21T15:46:53;16.00;96.60
13606;DHT22;6874;52.084;5.090;2022-09-21T15:49:25;16.00;96.60
13606;DHT22;6874;52.084;5.090;2022-09-21T15:55:37;16.00;96.60
13606;DHT22;6874;52.084;5.090;2022-09-21T15:57:38;16.00;96.60
13606;DHT22;6874;52.084;5.090;2022-09-21T16:00:26;16.00;96.60
13606;DHT22;6874;52.084;5.090;2022-09-21T16:05:30;16.00;96.50
13606;DHT22;6874;52.084;5.090;2022-09-21T16:08:09;16.00;96.50
13606;DHT22;6874;52.084;5.090;2022-09-21T16:10:40;16.00;96.40
13606;DHT22;6874;52.084;5.090;2022-09-21T16:13:14;16.00;96.40
13606;DHT22;6874;52.084;5.090;2022-09-21T16:18:46;15.90;96.30
13606;DHT22;6874;52.084;5.090;2022-09-21T16:21:16;15.90;96.30
13606;DHT22;6874;52.084;5.090;2022-09-21T16:23:45;15.90;96.20
13606;DHT22;6874;52.084;5.090;2022-09-21T16:26:22;15.90;96.20
13606;DHT22;6874;52.084;5.090;2022-09-21T16:28:56;15.90;96.20
13606;DHT22;6874;52.084;5.090;2022-09-21T16:31:32;15.80;96.10
13606;DHT22;6874;52.084;5.090;2022-09-21T16:34:02;15.80;96.10
13606;DHT22;6874;52.084;5.090;2022-09-21T16:36:34;15.80;96.10
13606;DHT22;6874;52.084;5.090;2022-09-21T16:39:01;15.70;96.10
13606;DHT22;6874;52.084;5.090;2022-09-21T16:41:45;15.70;96.10
13606;DHT22;6874;52.084;5.090;2022-09-21T16:44:14;15.70;96.10
13606;DHT22;6874;52.084;5.090;2022-09-21T16:46:55;15.60;96.00
13606;DHT22;6874;52.084;5.090;2022-09-21T16:49:22;15.60;96.00
13606;DHT22;6874;52.084;5.090;2022-09-21T16:51:50;15.60;95.90
13606;DHT22;6874;52.084;5.090;2022-09-21T16:54:17;15.60;95.90
13606;DHT22;6874;52.084;5.090;2022-09-21T16:56:44;15.50;95.90
13606;DHT22;6874;52.084;5.090;2022-09-21T16:59:16;15.50;95.80
13606;DHT22;6874;52.084;5.090;2022-09-21T17:01:46;15.40;95.70
13606;DHT22;6874;52.084;5.090;2022-09-21T17:04:21;15.40;95.70
13606;DHT22;6874;52.084;5.090;2022-09-21T17:06:48;15.30;95.70
13606;DHT22;6874;52.084;5.090;2022-09-21T17:09:38;15.40;95.70
13606;DHT22;6874;52.084;5.090;2022-09-21T17:12:07;15.20;95.60
13606;DHT22;6874;52.084;5.090;2022-09-21T17:14:34;15.20;95.60
13606;DHT22;6874;52.084;5.090;2022-09-21T17:17:21;15.20;95.60
13606;DHT22;6874;52.084;5.090;2022-09-21T17:19:49;15.10;95.50
13606;DHT22;6874;52.084;5.090;2022-09-21T17:22:15;15.10;95.50
13606;DHT22;6874;52.084;5.090;2022-09-21T17:24:48;15.00;95.40
13606;DHT22;6874;52.084;5.090;2022-09-21T17:27:15;15.00;95.30
13606;DHT22;6874;52.084;5.090;2022-09-21T17:29:44;14.90;95.30
13606;DHT22;6874;52.084;5.090;2022-09-21T17:32:18;14.90;95.20
13606;DHT22;6874;52.084;5.090;2022-09-21T17:34:44;14.90;95.20
13606;DHT22;6874;52.084;5.090;2022-09-21T17:37:10;14.80;95.10
13606;DHT22;6874;52.084;5.090;2022-09-21T17:39:37;14.70;95.00
13606;DHT22;6874;52.084;5.090;2022-09-21T17:42:15;14.70;95.00
13606;DHT22;6874;52.084;5.090;2022-09-21T17:45:08;14.70;95.00
13606;DHT22;6874;52.084;5.090;2022-09-21T17:47:38;14.60;94.90
13606;DHT22;6874;52.084;5.090;2022-09-21T17:52:39;14.60;94.90
13606;DHT22;6874;52.084;5.090;2022-09-21T17:55:24;14.50;94.90
13606;DHT22;6874;52.084;5.090;2022-09-21T18:01:03;14.40;94.80
13606;DHT22;6874;52.084;5.090;2022-09-21T18:03:34;14.40;94.80
13606;DHT22;6874;52.084;5.090;2022-09-21T18:06:03;14.30;94.80
13606;DHT22;6874;52.084;5.090;2022-09-21T18:08:30;14.30;94.80
13606;DHT22;6874;52.084;5.090;2022-09-21T18:13:39;14.20;94.80
13606;DHT22;6874;52.084;5.090;2022-09-21T18:16:30;14.10;94.70
13606;DHT22;6874;52.084;5.090;2022-09-21T18:19:19;14.10;94.80
13606;DHT22;6874;52.084;5.090;2022-09-21T18:21:48;14.10;94.80
13606;DHT22;6874;52.084;5.090;2022-09-21T18:24:20;14.00;94.70
13606;DHT22;6874;52.084;5.090;2022-09-21T18:26:48;14.00;94.80
13606;DHT22;6874;52.084;5.090;2022-09-21T18:29:30;14.00;94.80
13606;DHT22;6874;52.084;5.090;2022-09-21T18:45:44;13.70;94.70
13606;DHT22;6874;52.084;5.090;2022-09-21T18:48:30;13.60;94.70
13606;DHT22;6874;52.084;5.090;2022-09-21T18:51:20;13.60;94.70
13606;DHT22;6874;52.084;5.090;2022-09-21T18:53:50;13.60;94.70
13606;DHT22;6874;52.084;5.090;2022-09-21T18:56:23;13.50;94.70
13606;DHT22;6874;52.084;5.090;2022-09-21T18:58:49;13.50;94.70
13606;DHT22;6874;52.084;5.090;2022-09-21T19:01:15;13.50;94.70
13606;DHT22;6874;52.084;5.090;2022-09-21T19:03:43;13.40;94.70
13606;DHT22;6874;52.084;5.090;2022-09-21T19:14:44;13.30;94.70
13606;DHT22;6874;52.084;5.090;2022-09-21T19:21:04;13.20;94.70
13606;DHT22;6874;52.084;5.090;2022-09-21T19:25:45;13.10;94.70
13606;DHT22;6874;52.084;5.090;2022-09-21T19:31:17;13.00;94.70
13606;DHT22;6874;52.084;5.090;2022-09-21T19:33:43;13.00;94.70
13606;DHT22;6874;52.084;5.090;2022-09-21T19:36:10;13.00;94.70
13606;DHT22;6874;52.084;5.090;2022-09-21T19:38:36;12.90;94.70